Rechercher aéroport 
image banner adimage banner adimage banner ad
image banner ad

CN93 - Sierra Vista Rgnl Medical Center

Situé à San Luis Obispo, United States

ICAO - CN93, IATA -

Données fournies par Airmate  

Information générale

Coordonnées: N35°17'38" W120°39'58"
Élévation : 235 feet MSL.
 
Voir autres Aéroports à California

Données opérationnelles

Special qualification required
Heure actuelle UTC:
Heure actuelle locale:
Météo à : KSBP - San Luis County Rgnl ( 7 km )
METAR: KSBP 262356Z 30004KT 10SM -RA FEW050 BKN075 OVC100 19/16 A2995 RMK AO2 RAB33 SLP141 P0000 60001 T01940156 10228 20183 58004
TAF: KSBP 262342Z 2700/2724 25006KT P6SM -SHRA OVC100 FM270300 30006KT P6SM BKN120 FM270800 VRB03KT P6SM OVC007 FM271200 VRB03KT 1SM BR OVC003 FM271500 VRB03KT 5SM BR OVC007 FM271800 30011KT P6SM SKC
Voir NOTAMs / SUP AIP / TFR affectant cet aéroport [VIEW]
Fréquences de communication: [VIEW]

Pistes:

Coordonnées de l'aéroport

Adresse: San Luis Obispo United States

Vue satellite de CN93